ROMMA est une association bénévole à but non lucratif. Votre soutien est indispensable : ADHERER à ROMMA ou FAIRE un DON

Briord - (01, Ain)

Bugey (281 m)   Longitude: 05° 29' 13" E   Latitude: 45° 46' 37" N Station partenaire n°15
 

Détail journalier du     <<     >>

Température Precipitation Humidité Pression Vent Dir Rafale Dir. rafale Ensol.
Heure (°C) (mm) (%) (hPa) (km/h) (km/h) (min)
01:00 20.906710151NE8ENE0
02:00 20.306910153NE19NE0
03:00 19.707210167NE16NNE0
04:00 18.807610151NE13ENE0
05:00 18.3077101506NE0
06:00 15.7086101500---0
07:00 14.6088101500---0
08:00 13.8089101500---0
09:00 14.1090101505SE0
10:00 15.7089101603SSE0
11:00 19.907810161O11O0
12:00 22.207110164NO16NO0
13:00 23.6061101610NO27NO5
14:00 24.6054101613NO31NO60
15:00 25.3051101614NO31NNO60
16:00 26.2048101515NO37ONO60
17:00 26.7044101517NO37NO60
18:00 27.1043101515N32NNO60
19:00 27.2041101515NO34NO60
20:00 27.0039101415NO35ONO60
21:00 26.6040101412NO27N60
22:00 25.7041101411NO34NNO0
23:00 24.104310149NO27NNE0
minuit 22.8048101412N31N0

Graphique du 13-07-2019

 

Serveur OMMA